sensor_id;sensor_type;location;lat;lon;timestamp;temperature;humidity
36548;DHT22;22551;52.206;4.856;2023-06-22T01:18:32;17.60;99.90
36548;DHT22;22551;52.206;4.856;2023-06-22T01:23:50;17.50;99.90
36548;DHT22;22551;52.206;4.856;2023-06-22T01:28:58;17.50;99.90
36548;DHT22;22551;52.206;4.856;2023-06-22T01:34:03;17.40;99.90
36548;DHT22;22551;52.206;4.856;2023-06-22T01:39:07;17.30;99.90
36548;DHT22;22551;52.206;4.856;2023-06-22T01:44:12;17.30;99.90
36548;DHT22;22551;52.206;4.856;2023-06-22T01:49:16;17.40;99.90
36548;DHT22;22551;52.206;4.856;2023-06-22T01:54:18;17.40;99.90
36548;DHT22;22551;52.206;4.856;2023-06-22T01:59:25;17.40;99.90
36548;DHT22;22551;52.206;4.856;2023-06-22T02:04:34;17.30;99.90
36548;DHT22;22551;52.206;4.856;2023-06-22T02:09:43;17.20;99.90
36548;DHT22;22551;52.206;4.856;2023-06-22T02:14:48;17.20;99.90
36548;DHT22;22551;52.206;4.856;2023-06-22T02:19:51;17.10;99.90
36548;DHT22;22551;52.206;4.856;2023-06-22T02:24:53;17.00;99.90
36548;DHT22;22551;52.206;4.856;2023-06-22T02:29:57;17.00;99.90
36548;DHT22;22551;52.206;4.856;2023-06-22T02:34:59;17.00;99.90
36548;DHT22;22551;52.206;4.856;2023-06-22T02:40:06;17.10;99.90
36548;DHT22;22551;52.206;4.856;2023-06-22T02:45:11;17.10;99.90
36548;DHT22;22551;52.206;4.856;2023-06-22T02:50:13;17.10;99.90
36548;DHT22;22551;52.206;4.856;2023-06-22T02:55:15;17.10;99.90
36548;DHT22;22551;52.206;4.856;2023-06-22T03:00:19;17.00;99.90
36548;DHT22;22551;52.206;4.856;2023-06-22T03:05:22;17.10;99.90
36548;DHT22;22551;52.206;4.856;2023-06-22T03:10:25;17.00;99.90
36548;DHT22;22551;52.206;4.856;2023-06-22T03:15:28;17.10;99.90
36548;DHT22;22551;52.206;4.856;2023-06-22T03:20:32;17.00;99.90
36548;DHT22;22551;52.206;4.856;2023-06-22T03:25:35;17.00;99.90
36548;DHT22;22551;52.206;4.856;2023-06-22T03:30:39;17.00;99.90
36548;DHT22;22551;52.206;4.856;2023-06-22T03:35:41;17.00;99.90
36548;DHT22;22551;52.206;4.856;2023-06-22T03:40:44;17.00;99.90
36548;DHT22;22551;52.206;4.856;2023-06-22T03:45:47;16.90;99.90
36548;DHT22;22551;52.206;4.856;2023-06-22T03:50:50;16.90;99.90
36548;DHT22;22551;52.206;4.856;2023-06-22T03:55:53;16.90;99.90
36548;DHT22;22551;52.206;4.856;2023-06-22T04:00:56;16.90;99.90
36548;DHT22;22551;52.206;4.856;2023-06-22T04:05:59;16.90;99.90
36548;DHT22;22551;52.206;4.856;2023-06-22T04:11:02;16.90;99.90
36548;DHT22;22551;52.206;4.856;2023-06-22T04:16:05;17.00;99.90
36548;DHT22;22551;52.206;4.856;2023-06-22T04:21:09;17.00;99.90
36548;DHT22;22551;52.206;4.856;2023-06-22T04:26:12;17.10;99.90
36548;DHT22;22551;52.206;4.856;2023-06-22T04:31:17;17.10;99.90
36548;DHT22;22551;52.206;4.856;2023-06-22T04:36:20;17.20;99.90
36548;DHT22;22551;52.206;4.856;2023-06-22T04:41:24;17.30;99.90
36548;DHT22;22551;52.206;4.856;2023-06-22T04:46:27;17.40;99.90
36548;DHT22;22551;52.206;4.856;2023-06-22T04:51:30;17.50;99.90
36548;DHT22;22551;52.206;4.856;2023-06-22T04:56:32;17.60;99.90
36548;DHT22;22551;52.206;4.856;2023-06-22T05:01:36;17.80;99.90
36548;DHT22;22551;52.206;4.856;2023-06-22T05:06:39;17.90;99.90
36548;DHT22;22551;52.206;4.856;2023-06-22T05:11:44;18.10;99.90
36548;DHT22;22551;52.206;4.856;2023-06-22T05:16:49;18.20;99.90
36548;DHT22;22551;52.206;4.856;2023-06-22T05:21:52;18.40;99.90
36548;DHT22;22551;52.206;4.856;2023-06-22T05:26:54;18.40;99.90
36548;DHT22;22551;52.206;4.856;2023-06-22T05:31:58;18.50;99.90
36548;DHT22;22551;52.206;4.856;2023-06-22T05:57:43;21.20;99.90
36548;DHT22;22551;52.206;4.856;2023-06-22T06:02:45;21.30;99.90
36548;DHT22;22551;52.206;4.856;2023-06-22T06:07:49;21.50;99.90
36548;DHT22;22551;52.206;4.856;2023-06-22T06:12:53;21.80;99.90
36548;DHT22;22551;52.206;4.856;2023-06-22T06:17:55;21.50;99.90
36548;DHT22;22551;52.206;4.856;2023-06-22T06:22:58;21.40;99.90
36548;DHT22;22551;52.206;4.856;2023-06-22T06:28:02;21.30;99.90
36548;DHT22;22551;52.206;4.856;2023-06-22T06:33:05;21.30;99.90
36548;DHT22;22551;52.206;4.856;2023-06-22T06:38:09;21.30;99.90
36548;DHT22;22551;52.206;4.856;2023-06-22T06:43:13;21.30;99.90
36548;DHT22;22551;52.206;4.856;2023-06-22T06:48:16;21.40;99.90
36548;DHT22;22551;52.206;4.856;2023-06-22T06:53:19;21.60;99.90
36548;DHT22;22551;52.206;4.856;2023-06-22T06:58:22;21.80;99.90
36548;DHT22;22551;52.206;4.856;2023-06-22T07:03:24;21.90;99.90
36548;DHT22;22551;52.206;4.856;2023-06-22T07:08:27;22.20;99.90
36548;DHT22;22551;52.206;4.856;2023-06-22T07:13:30;22.00;99.90
36548;DHT22;22551;52.206;4.856;2023-06-22T07:18:34;22.40;99.90
36548;DHT22;22551;52.206;4.856;2023-06-22T07:23:36;22.60;99.90
36548;DHT22;22551;52.206;4.856;2023-06-22T07:28:40;23.10;99.90
36548;DHT22;22551;52.206;4.856;2023-06-22T07:33:42;23.50;99.90
36548;DHT22;22551;52.206;4.856;2023-06-22T07:38:45;23.50;99.90
36548;DHT22;22551;52.206;4.856;2023-06-22T07:43:48;23.80;99.90
36548;DHT22;22551;52.206;4.856;2023-06-22T07:48:51;23.60;99.90
36548;DHT22;22551;52.206;4.856;2023-06-22T07:53:53;24.50;99.90
36548;DHT22;22551;52.206;4.856;2023-06-22T07:58:57;24.50;99.90
36548;DHT22;22551;52.206;4.856;2023-06-22T08:04:01;24.20;99.90
36548;DHT22;22551;52.206;4.856;2023-06-22T08:09:03;24.40;99.90
36548;DHT22;22551;52.206;4.856;2023-06-22T08:14:07;25.00;99.90
36548;DHT22;22551;52.206;4.856;2023-06-22T08:19:09;24.80;99.90
36548;DHT22;22551;52.206;4.856;2023-06-22T08:24:11;25.20;99.90
36548;DHT22;22551;52.206;4.856;2023-06-22T08:29:15;25.10;99.90
36548;DHT22;22551;52.206;4.856;2023-06-22T08:34:17;25.40;99.90
36548;DHT22;22551;52.206;4.856;2023-06-22T08:39:22;25.60;99.90
36548;DHT22;22551;52.206;4.856;2023-06-22T08:44:25;26.00;99.90
36548;DHT22;22551;52.206;4.856;2023-06-22T08:49:28;25.80;99.90
36548;DHT22;22551;52.206;4.856;2023-06-22T08:54:30;25.80;99.90
36548;DHT22;22551;52.206;4.856;2023-06-22T08:59:35;26.20;99.90
36548;DHT22;22551;52.206;4.856;2023-06-22T09:04:37;25.50;99.90
36548;DHT22;22551;52.206;4.856;2023-06-22T09:09:39;25.60;99.90
36548;DHT22;22551;52.206;4.856;2023-06-22T09:14:42;25.90;99.90
36548;DHT22;22551;52.206;4.856;2023-06-22T09:19:45;26.10;99.90
36548;DHT22;22551;52.206;4.856;2023-06-22T09:24:48;26.50;99.90
36548;DHT22;22551;52.206;4.856;2023-06-22T09:29:51;25.90;99.90
36548;DHT22;22551;52.206;4.856;2023-06-22T09:34:54;26.00;99.90
36548;DHT22;22551;52.206;4.856;2023-06-22T09:39:56;25.70;99.90
36548;DHT22;22551;52.206;4.856;2023-06-22T09:45:00;26.30;99.90
36548;DHT22;22551;52.206;4.856;2023-06-22T09:50:03;26.50;99.90
36548;DHT22;22551;52.206;4.856;2023-06-22T09:55:07;26.10;99.90
36548;DHT22;22551;52.206;4.856;2023-06-22T10:00:12;25.60;99.90
36548;DHT22;22551;52.206;4.856;2023-06-22T10:05:15;26.40;99.90
36548;DHT22;22551;52.206;4.856;2023-06-22T10:10:18;26.30;99.90
36548;DHT22;22551;52.206;4.856;2023-06-22T10:15:22;25.70;99.90
36548;DHT22;22551;52.206;4.856;2023-06-22T10:20:27;25.20;99.90
36548;DHT22;22551;52.206;4.856;2023-06-22T10:25:30;25.40;99.90
36548;DHT22;22551;52.206;4.856;2023-06-22T10:30:33;25.40;99.90
36548;DHT22;22551;52.206;4.856;2023-06-22T10:35:36;25.10;99.90
36548;DHT22;22551;52.206;4.856;2023-06-22T10:40:39;24.90;99.90
36548;DHT22;22551;52.206;4.856;2023-06-22T10:45:42;24.80;99.90
36548;DHT22;22551;52.206;4.856;2023-06-22T10:50:46;24.90;99.90
36548;DHT22;22551;52.206;4.856;2023-06-22T10:55:48;24.70;99.90
36548;DHT22;22551;52.206;4.856;2023-06-22T11:00:53;24.60;99.90
36548;DHT22;22551;52.206;4.856;2023-06-22T11:05:55;24.50;99.90
36548;DHT22;22551;52.206;4.856;2023-06-22T11:10:57;24.50;99.90
36548;DHT22;22551;52.206;4.856;2023-06-22T11:16:00;24.70;99.90
36548;DHT22;22551;52.206;4.856;2023-06-22T11:21:03;24.10;99.90
36548;DHT22;22551;52.206;4.856;2023-06-22T11:26:06;24.20;99.90
36548;DHT22;22551;52.206;4.856;2023-06-22T11:31:10;23.90;99.90
36548;DHT22;22551;52.206;4.856;2023-06-22T11:36:12;24.00;99.90
36548;DHT22;22551;52.206;4.856;2023-06-22T11:41:15;24.10;99.90
36548;DHT22;22551;52.206;4.856;2023-06-22T11:46:19;23.80;99.90
36548;DHT22;22551;52.206;4.856;2023-06-22T11:51:22;24.00;99.90
36548;DHT22;22551;52.206;4.856;2023-06-22T11:56:24;24.30;99.90
36548;DHT22;22551;52.206;4.856;2023-06-22T12:01:27;24.00;99.90
36548;DHT22;22551;52.206;4.856;2023-06-22T12:06:29;23.80;99.90
36548;DHT22;22551;52.206;4.856;2023-06-22T12:11:36;23.90;99.90
36548;DHT22;22551;52.206;4.856;2023-06-22T12:16:39;23.70;99.90
36548;DHT22;22551;52.206;4.856;2023-06-22T12:21:42;23.80;99.90
36548;DHT22;22551;52.206;4.856;2023-06-22T12:26:46;24.00;99.90
36548;DHT22;22551;52.206;4.856;2023-06-22T12:31:49;23.80;99.90
36548;DHT22;22551;52.206;4.856;2023-06-22T12:36:51;23.70;99.90
36548;DHT22;22551;52.206;4.856;2023-06-22T12:41:55;23.60;99.90
36548;DHT22;22551;52.206;4.856;2023-06-22T12:46:58;23.50;99.90
36548;DHT22;22551;52.206;4.856;2023-06-22T12:52:00;23.30;99.90
36548;DHT22;22551;52.206;4.856;2023-06-22T12:57:03;23.40;99.90
36548;DHT22;22551;52.206;4.856;2023-06-22T13:02:07;23.40;99.90
36548;DHT22;22551;52.206;4.856;2023-06-22T13:07:10;23.40;99.90
36548;DHT22;22551;52.206;4.856;2023-06-22T13:12:12;23.30;99.90
36548;DHT22;22551;52.206;4.856;2023-06-22T13:17:16;23.40;99.90
36548;DHT22;22551;52.206;4.856;2023-06-22T13:22:25;23.00;99.90
36548;DHT22;22551;52.206;4.856;2023-06-22T13:27:29;23.00;99.90
36548;DHT22;22551;52.206;4.856;2023-06-22T13:32:33;23.00;99.90
36548;DHT22;22551;52.206;4.856;2023-06-22T13:37:35;23.10;99.90
36548;DHT22;22551;52.206;4.856;2023-06-22T13:42:38;23.10;99.90
36548;DHT22;22551;52.206;4.856;2023-06-22T13:47:42;23.10;99.90
36548;DHT22;22551;52.206;4.856;2023-06-22T13:52:45;23.00;99.90
36548;DHT22;22551;52.206;4.856;2023-06-22T13:57:48;23.10;99.90
36548;DHT22;22551;52.206;4.856;2023-06-22T14:02:51;23.10;99.90
36548;DHT22;22551;52.206;4.856;2023-06-22T15:00:33;22.50;99.90
36548;DHT22;22551;52.206;4.856;2023-06-22T15:05:35;22.30;99.90
36548;DHT22;22551;52.206;4.856;2023-06-22T15:10:38;22.40;99.90
36548;DHT22;22551;52.206;4.856;2023-06-22T15:15:43;22.40;99.90
36548;DHT22;22551;52.206;4.856;2023-06-22T15:20:46;22.40;99.90
36548;DHT22;22551;52.206;4.856;2023-06-22T15:25:49;22.40;99.90
36548;DHT22;22551;52.206;4.856;2023-06-22T15:30:54;22.20;99.90
36548;DHT22;22551;52.206;4.856;2023-06-22T15:35:56;22.10;99.90
36548;DHT22;22551;52.206;4.856;2023-06-22T15:40:59;22.00;99.90
36548;DHT22;22551;52.206;4.856;2023-06-22T15:46:02;22.00;99.90
36548;DHT22;22551;52.206;4.856;2023-06-22T15:51:04;21.90;99.90
36548;DHT22;22551;52.206;4.856;2023-06-22T15:56:07;21.90;99.90
36548;DHT22;22551;52.206;4.856;2023-06-22T16:01:11;21.90;99.90
36548;DHT22;22551;52.206;4.856;2023-06-22T16:06:13;21.80;99.90
36548;DHT22;22551;52.206;4.856;2023-06-22T16:11:15;21.80;99.90
36548;DHT22;22551;52.206;4.856;2023-06-22T16:16:19;21.80;99.90
36548;DHT22;22551;52.206;4.856;2023-06-22T16:21:21;21.70;99.90
36548;DHT22;22551;52.206;4.856;2023-06-22T16:26:24;21.50;99.90
36548;DHT22;22551;52.206;4.856;2023-06-22T16:31:27;21.40;99.90
36548;DHT22;22551;52.206;4.856;2023-06-22T16:41:40;21.50;99.90
36548;DHT22;22551;52.206;4.856;2023-06-22T16:46:47;21.50;99.90
36548;DHT22;22551;52.206;4.856;2023-06-22T16:51:49;21.50;99.90
36548;DHT22;22551;52.206;4.856;2023-06-22T16:56:51;21.30;99.90
36548;DHT22;22551;52.206;4.856;2023-06-22T17:01:56;21.30;99.90
36548;DHT22;22551;52.206;4.856;2023-06-22T17:07:06;21.50;99.90
36548;DHT22;22551;52.206;4.856;2023-06-22T17:12:14;21.30;99.90
36548;DHT22;22551;52.206;4.856;2023-06-22T17:17:18;21.30;99.90
36548;DHT22;22551;52.206;4.856;2023-06-22T17:22:22;21.30;99.90
36548;DHT22;22551;52.206;4.856;2023-06-22T17:27:28;21.20;99.90
36548;DHT22;22551;52.206;4.856;2023-06-22T17:32:31;21.00;99.90
36548;DHT22;22551;52.206;4.856;2023-06-22T17:37:46;21.00;99.90
36548;DHT22;22551;52.206;4.856;2023-06-22T17:42:50;20.90;99.90
36548;DHT22;22551;52.206;4.856;2023-06-22T17:47:53;20.90;99.90
36548;DHT22;22551;52.206;4.856;2023-06-22T17:52:56;20.90;99.90
36548;DHT22;22551;52.206;4.856;2023-06-22T17:57:58;20.70;99.90
36548;DHT22;22551;52.206;4.856;2023-06-22T18:03:02;20.80;99.90
36548;DHT22;22551;52.206;4.856;2023-06-22T18:08:06;20.70;99.90
36548;DHT22;22551;52.206;4.856;2023-06-22T18:13:09;20.60;99.90
36548;DHT22;22551;52.206;4.856;2023-06-22T18:18:16;20.70;99.90
36548;DHT22;22551;52.206;4.856;2023-06-22T18:23:19;20.50;99.90
36548;DHT22;22551;52.206;4.856;2023-06-22T18:28:22;20.50;99.90
36548;DHT22;22551;52.206;4.856;2023-06-22T18:33:27;20.40;99.90
36548;DHT22;22551;52.206;4.856;2023-06-22T18:38:30;20.30;99.90
36548;DHT22;22551;52.206;4.856;2023-06-22T18:43:37;20.30;99.90
36548;DHT22;22551;52.206;4.856;2023-06-22T18:48:41;20.30;99.90
36548;DHT22;22551;52.206;4.856;2023-06-22T18:58:56;20.30;99.90
36548;DHT22;22551;52.206;4.856;2023-06-22T19:19:34;20.20;99.90
36548;DHT22;22551;52.206;4.856;2023-06-22T19:29:52;20.10;99.90
36548;DHT22;22551;52.206;4.856;2023-06-22T19:34:56;20.00;99.90
36548;DHT22;22551;52.206;4.856;2023-06-22T19:39:59;20.00;99.90
36548;DHT22;22551;52.206;4.856;2023-06-22T19:45:01;19.80;99.90
36548;DHT22;22551;52.206;4.856;2023-06-22T19:50:06;19.70;99.90
36548;DHT22;22551;52.206;4.856;2023-06-22T19:55:10;19.70;99.90
36548;DHT22;22551;52.206;4.856;2023-06-22T20:00:20;19.60;99.90
36548;DHT22;22551;52.206;4.856;2023-06-22T20:05:24;19.50;99.90
36548;DHT22;22551;52.206;4.856;2023-06-22T20:10:26;19.40;99.90
36548;DHT22;22551;52.206;4.856;2023-06-22T20:15:29;19.30;99.90
36548;DHT22;22551;52.206;4.856;2023-06-22T20:20:33;19.30;99.90
36548;DHT22;22551;52.206;4.856;2023-06-22T20:25:38;19.30;99.90
36548;DHT22;22551;52.206;4.856;2023-06-22T20:30:59;19.30;99.90
36548;DHT22;22551;52.206;4.856;2023-06-22T20:36:06;19.10;99.90
36548;DHT22;22551;52.206;4.856;2023-06-22T20:41:08;19.20;99.90
36548;DHT22;22551;52.206;4.856;2023-06-22T20:46:10;19.00;99.90
36548;DHT22;22551;52.206;4.856;2023-06-22T20:51:14;19.00;99.90
36548;DHT22;22551;52.206;4.856;2023-06-22T20:56:18;18.90;99.90
36548;DHT22;22551;52.206;4.856;2023-06-22T21:01:20;18.80;99.90
36548;DHT22;22551;52.206;4.856;2023-06-22T21:06:25;18.80;99.90
36548;DHT22;22551;52.206;4.856;2023-06-22T21:11:28;18.70;99.90
36548;DHT22;22551;52.206;4.856;2023-06-22T21:16:30;18.70;99.90
36548;DHT22;22551;52.206;4.856;2023-06-22T21:21:35;18.60;99.90
36548;DHT22;22551;52.206;4.856;2023-06-22T21:26:38;18.60;99.90
36548;DHT22;22551;52.206;4.856;2023-06-22T21:31:41;18.50;99.90
36548;DHT22;22551;52.206;4.856;2023-06-22T21:36:45;18.50;99.90
36548;DHT22;22551;52.206;4.856;2023-06-22T21:41:47;18.40;99.90
36548;DHT22;22551;52.206;4.856;2023-06-22T21:46:49;18.40;99.90
36548;DHT22;22551;52.206;4.856;2023-06-22T21:51:53;18.40;99.90
36548;DHT22;22551;52.206;4.856;2023-06-22T21:56:55;18.30;99.90
36548;DHT22;22551;52.206;4.856;2023-06-22T22:01:57;18.20;99.90
36548;DHT22;22551;52.206;4.856;2023-06-22T22:07:01;18.20;99.90
36548;DHT22;22551;52.206;4.856;2023-06-22T22:12:06;18.20;99.90
36548;DHT22;22551;52.206;4.856;2023-06-22T22:17:08;18.10;99.90
36548;DHT22;22551;52.206;4.856;2023-06-22T22:22:13;17.90;99.90
36548;DHT22;22551;52.206;4.856;2023-06-22T22:27:18;17.90;99.90
36548;DHT22;22551;52.206;4.856;2023-06-22T22:32:20;17.80;99.90
36548;DHT22;22551;52.206;4.856;2023-06-22T22:37:24;17.70;99.90
36548;DHT22;22551;52.206;4.856;2023-06-22T22:42:26;17.60;99.90
36548;DHT22;22551;52.206;4.856;2023-06-22T22:47:28;17.50;99.90
36548;DHT22;22551;52.206;4.856;2023-06-22T22:52:33;17.40;99.90
36548;DHT22;22551;52.206;4.856;2023-06-22T22:57:35;17.40;99.90
36548;DHT22;22551;52.206;4.856;2023-06-22T23:02:37;17.40;99.90
36548;DHT22;22551;52.206;4.856;2023-06-22T23:07:41;17.40;99.90
36548;DHT22;22551;52.206;4.856;2023-06-22T23:12:43;17.30;99.90
36548;DHT22;22551;52.206;4.856;2023-06-22T23:17:45;17.20;99.90
36548;DHT22;22551;52.206;4.856;2023-06-22T23:22:54;17.20;99.90
36548;DHT22;22551;52.206;4.856;2023-06-22T23:27:58;17.20;99.90
36548;DHT22;22551;52.206;4.856;2023-06-22T23:33:01;17.10;99.90
36548;DHT22;22551;52.206;4.856;2023-06-22T23:38:04;17.10;99.90
36548;DHT22;22551;52.206;4.856;2023-06-22T23:43:10;17.00;99.90
36548;DHT22;22551;52.206;4.856;2023-06-22T23:48:12;17.10;99.90
36548;DHT22;22551;52.206;4.856;2023-06-22T23:53:16;17.10;99.90
36548;DHT22;22551;52.206;4.856;2023-06-22T23:58:18;17.00;99.90
